APG430 RPLL-RPVP
Flight info
| Callsign | APG430 |
|---|---|
| Flight time | 0h 57m |
| Altitude | 32000 |
| Route | BUCAL2R BUCAL M646 NOMYO NOMYO2W |
| Aircraft | A320/M-SDE3FGHIRWY/LB1 |
Departure
| Time | 2026-05-06 11:40 |
|---|---|
| Airport | Ninoy Aquino International Airport (RPLL) |
Arrival
| Time | 2026-05-06 12:38 |
|---|---|
| Airport | Puerto Princesa International Airport / PAF Antonio Bautista Air Base (RPVP) |
| Time | Latitude | Longitude | Altitude | Speed | Heading |
|---|---|---|---|---|---|
| 2026-05-06 10:57 | 14.50855 | 121.01279 | 82 ft | 0 kts | 330° |
| 2026-05-06 11:28 | 14.50849 | 121.01282 | 82 ft | 2 kts | 330° |
| 2026-05-06 11:28 | 14.50837 | 121.01289 | 82 ft | 2 kts | 330° |
| 2026-05-06 11:28 | 14.50824 | 121.01298 | 82 ft | 2 kts | 330° |
| 2026-05-06 11:29 | 14.50810 | 121.01305 | 82 ft | 1 kts | 330° |
| 2026-05-06 11:29 | 14.50801 | 121.01311 | 82 ft | 2 kts | 323° |
| 2026-05-06 11:29 | 14.50790 | 121.01323 | 82 ft | 2 kts | 304° |
| 2026-05-06 11:29 | 14.50783 | 121.01337 | 82 ft | 2 kts | 286° |
| 2026-05-06 11:30 | 14.50780 | 121.01354 | 82 ft | 2 kts | 269° |
| 2026-05-06 11:30 | 14.50782 | 121.01369 | 82 ft | 2 kts | 252° |
| 2026-05-06 11:30 | 14.50786 | 121.01379 | 82 ft | 1 kts | 242° |
| 2026-05-06 11:30 | 14.50788 | 121.01383 | 82 ft | 0 kts | 240° |
| 2026-05-06 11:32 | 14.50785 | 121.01377 | 82 ft | 2 kts | 240° |
| 2026-05-06 11:33 | 14.50773 | 121.01356 | 82 ft | 3 kts | 239° |
| 2026-05-06 11:33 | 14.50756 | 121.01330 | 82 ft | 4 kts | 234° |
| 2026-05-06 11:33 | 14.50725 | 121.01313 | 82 ft | 5 kts | 164° |
| 2026-05-06 11:33 | 14.50680 | 121.01320 | 82 ft | 6 kts | 197° |
| 2026-05-06 11:34 | 14.50647 | 121.01280 | 82 ft | 8 kts | 240° |
| 2026-05-06 11:34 | 14.50617 | 121.01225 | 82 ft | 9 kts | 240° |
| 2026-05-06 11:34 | 14.50586 | 121.01168 | 82 ft | 9 kts | 240° |
| 2026-05-06 11:34 | 14.50549 | 121.01104 | 82 ft | 10 kts | 239° |
| 2026-05-06 11:35 | 14.50510 | 121.01034 | 82 ft | 11 kts | 241° |
| 2026-05-06 11:35 | 14.50468 | 121.00957 | 82 ft | 12 kts | 240° |
| 2026-05-06 11:35 | 14.50421 | 121.00873 | 82 ft | 13 kts | 240° |
| 2026-05-06 11:35 | 14.50372 | 121.00785 | 82 ft | 14 kts | 240° |
| 2026-05-06 11:36 | 14.50322 | 121.00694 | 82 ft | 14 kts | 240° |
| 2026-05-06 11:36 | 14.50269 | 121.00600 | 82 ft | 15 kts | 240° |
| 2026-05-06 11:36 | 14.50215 | 121.00502 | 82 ft | 15 kts | 241° |
| 2026-05-06 11:36 | 14.50156 | 121.00396 | 82 ft | 16 kts | 240° |
| 2026-05-06 11:37 | 14.50095 | 121.00287 | 82 ft | 16 kts | 240° |
| 2026-05-06 11:37 | 14.50033 | 121.00174 | 82 ft | 18 kts | 240° |
| 2026-05-06 11:37 | 14.49968 | 121.00057 | 82 ft | 18 kts | 241° |
| 2026-05-06 11:37 | 14.49910 | 120.99966 | 82 ft | 10 kts | 217° |
| 2026-05-06 11:38 | 14.49864 | 120.99970 | 82 ft | 6 kts | 147° |
| 2026-05-06 11:38 | 14.49816 | 121.00001 | 82 ft | 9 kts | 148° |
| 2026-05-06 11:38 | 14.49797 | 121.00033 | 82 ft | 4 kts | 70° |
| 2026-05-06 11:38 | 14.49810 | 121.00060 | 82 ft | 0 kts | 60° |
| 2026-05-06 11:39 | 14.49861 | 121.00153 | 82 ft | 46 kts | 60° |
| 2026-05-06 11:39 | 14.50173 | 121.00710 | 82 ft | 116 kts | 62° |
| 2026-05-06 11:40 | 14.50674 | 121.01623 | 87 ft | 168 kts | 64° |
| 2026-05-06 11:40 | 14.51326 | 121.02852 | 641 ft | 174 kts | 61° |
| 2026-05-06 11:40 | 14.51999 | 121.04040 | 1451 ft | 169 kts | 60° |
| 2026-05-06 11:40 | 14.52616 | 121.05138 | 2053 ft | 174 kts | 60° |
| 2026-05-06 11:41 | 14.53283 | 121.06348 | 2384 ft | 186 kts | 60° |
| 2026-05-06 11:41 | 14.54022 | 121.07703 | 2688 ft | 201 kts | 60° |
| 2026-05-06 11:41 | 14.54775 | 121.09110 | 2876 ft | 222 kts | 60° |
| 2026-05-06 11:41 | 14.55593 | 121.10644 | 3213 ft | 239 kts | 60° |
| 2026-05-06 11:42 | 14.56445 | 121.12284 | 3545 ft | 256 kts | 64° |
| 2026-05-06 11:42 | 14.56822 | 121.14140 | 3961 ft | 271 kts | 92° |
| 2026-05-06 11:42 | 14.56243 | 121.16048 | 4639 ft | 277 kts | 121° |
| 2026-05-06 11:42 | 14.54978 | 121.17550 | 5350 ft | 279 kts | 134° |
| 2026-05-06 11:43 | 14.53543 | 121.18906 | 6026 ft | 283 kts | 136° |
| 2026-05-06 11:43 | 14.52061 | 121.20245 | 6716 ft | 286 kts | 137° |
| 2026-05-06 11:43 | 14.50557 | 121.21576 | 7411 ft | 288 kts | 137° |
| 2026-05-06 11:44 | 14.47457 | 121.24244 | 8834 ft | 292 kts | 142° |
| 2026-05-06 11:44 | 14.45574 | 121.25053 | 9453 ft | 303 kts | 171° |
| 2026-05-06 11:44 | 14.43499 | 121.24771 | 10085 ft | 310 kts | 202° |
| 2026-05-06 11:44 | 14.41682 | 121.23507 | 10595 ft | 319 kts | 220° |
| 2026-05-06 11:45 | 14.39971 | 121.21975 | 10873 ft | 335 kts | 220° |
| 2026-05-06 11:45 | 14.38142 | 121.20359 | 11146 ft | 350 kts | 219° |
| 2026-05-06 11:45 | 14.36223 | 121.18727 | 11388 ft | 364 kts | 218° |
| 2026-05-06 11:45 | 14.34168 | 121.17032 | 11622 ft | 378 kts | 218° |
| 2026-05-06 11:46 | 14.32087 | 121.15346 | 11850 ft | 390 kts | 217° |
| 2026-05-06 11:46 | 14.29903 | 121.13593 | 12093 ft | 400 kts | 217° |
| 2026-05-06 11:46 | 14.27681 | 121.11822 | 12518 ft | 404 kts | 217° |
| 2026-05-06 11:46 | 14.25447 | 121.10043 | 12968 ft | 406 kts | 217° |
| 2026-05-06 11:47 | 14.23211 | 121.08266 | 13405 ft | 408 kts | 217° |
| 2026-05-06 11:47 | 14.20949 | 121.06471 | 13843 ft | 410 kts | 217° |
| 2026-05-06 11:47 | 14.18655 | 121.04650 | 14270 ft | 412 kts | 217° |
| 2026-05-06 11:47 | 14.16381 | 121.02846 | 14694 ft | 414 kts | 217° |
| 2026-05-06 11:48 | 14.14100 | 121.01036 | 15099 ft | 415 kts | 217° |
| 2026-05-06 11:48 | 14.11794 | 120.99209 | 15495 ft | 417 kts | 217° |
| 2026-05-06 11:48 | 14.09505 | 120.97395 | 15862 ft | 419 kts | 217° |
| 2026-05-06 11:48 | 14.07190 | 120.95561 | 16222 ft | 420 kts | 217° |
| 2026-05-06 11:49 | 14.04866 | 120.93721 | 16550 ft | 423 kts | 217° |
| 2026-05-06 11:49 | 14.02500 | 120.91846 | 16862 ft | 425 kts | 217° |
| 2026-05-06 11:49 | 14.00177 | 120.90008 | 17155 ft | 427 kts | 217° |
| 2026-05-06 11:49 | 13.97784 | 120.88114 | 17485 ft | 429 kts | 217° |
| 2026-05-06 11:50 | 13.95408 | 120.86235 | 17769 ft | 431 kts | 217° |
| 2026-05-06 11:50 | 13.93023 | 120.84351 | 18054 ft | 433 kts | 217° |
| 2026-05-06 11:50 | 13.90636 | 120.82463 | 18336 ft | 435 kts | 217° |
| 2026-05-06 11:50 | 13.88178 | 120.80521 | 18635 ft | 437 kts | 217° |
| 2026-05-06 11:51 | 13.85739 | 120.78591 | 18928 ft | 438 kts | 217° |
| 2026-05-06 11:51 | 13.83327 | 120.76685 | 19202 ft | 439 kts | 217° |
| 2026-05-06 11:51 | 13.80915 | 120.74779 | 19466 ft | 441 kts | 217° |
| 2026-05-06 11:51 | 13.80101 | 120.74136 | 19557 ft | 441 kts | 217° |
| 2026-05-06 11:52 | 13.78454 | 120.72835 | 19735 ft | 442 kts | 217° |
| 2026-05-06 11:52 | 13.69141 | 120.65478 | 22229 ft | 409 kts | 217° |
| 2026-05-06 11:53 | 13.66935 | 120.63737 | 22991 ft | 398 kts | 217° |
| 2026-05-06 11:53 | 13.64774 | 120.62031 | 23683 ft | 389 kts | 217° |
| 2026-05-06 11:53 | 13.62606 | 120.60323 | 24129 ft | 388 kts | 217° |
| 2026-05-06 11:53 | 13.60381 | 120.58732 | 24474 ft | 390 kts | 212° |
| 2026-05-06 11:54 | 13.58033 | 120.57333 | 24847 ft | 390 kts | 207° |
| 2026-05-06 11:54 | 13.55622 | 120.56130 | 25515 ft | 382 kts | 205° |
| 2026-05-06 11:54 | 13.53263 | 120.54999 | 26246 ft | 372 kts | 205° |
| 2026-05-06 11:54 | 13.50920 | 120.53881 | 26762 ft | 368 kts | 205° |
| 2026-05-06 11:55 | 13.48603 | 120.52771 | 27105 ft | 369 kts | 205° |
| 2026-05-06 11:55 | 13.46243 | 120.51636 | 27413 ft | 371 kts | 205° |
| 2026-05-06 11:55 | 13.43885 | 120.50502 | 27732 ft | 373 kts | 205° |
| 2026-05-06 11:55 | 13.41526 | 120.49366 | 28051 ft | 375 kts | 205° |
| 2026-05-06 11:56 | 13.39156 | 120.48225 | 28363 ft | 376 kts | 205° |
| 2026-05-06 11:56 | 13.36764 | 120.47073 | 28676 ft | 378 kts | 205° |
| 2026-05-06 11:56 | 13.34373 | 120.45925 | 28992 ft | 379 kts | 205° |
| 2026-05-06 11:56 | 13.31977 | 120.44774 | 29293 ft | 381 kts | 206° |
| 2026-05-06 11:57 | 13.29571 | 120.43622 | 29592 ft | 382 kts | 206° |
| 2026-05-06 11:57 | 13.27127 | 120.42451 | 29888 ft | 384 kts | 206° |
| 2026-05-06 11:57 | 13.24701 | 120.41288 | 30169 ft | 385 kts | 206° |
| 2026-05-06 11:57 | 13.22220 | 120.40099 | 30441 ft | 388 kts | 206° |
| 2026-05-06 11:58 | 13.19786 | 120.38930 | 30699 ft | 390 kts | 206° |
| 2026-05-06 11:58 | 13.17285 | 120.37730 | 30957 ft | 392 kts | 206° |
| 2026-05-06 11:58 | 13.14791 | 120.36533 | 31210 ft | 394 kts | 206° |
| 2026-05-06 11:58 | 13.12240 | 120.35310 | 31479 ft | 395 kts | 206° |
| 2026-05-06 11:59 | 13.09691 | 120.34086 | 31648 ft | 400 kts | 206° |
| 2026-05-06 11:59 | 13.07137 | 120.32861 | 31780 ft | 405 kts | 206° |
| 2026-05-06 11:59 | 13.04584 | 120.31637 | 31896 ft | 411 kts | 206° |
| 2026-05-06 11:59 | 13.01944 | 120.30371 | 31907 ft | 419 kts | 206° |
| 2026-05-06 12:00 | 12.96559 | 120.27791 | 31909 ft | 434 kts | 206° |
| 2026-05-06 12:00 | 12.90987 | 120.25124 | 31899 ft | 448 kts | 206° |
| 2026-05-06 12:01 | 12.85207 | 120.22357 | 31892 ft | 460 kts | 206° |
| 2026-05-06 12:01 | 12.79214 | 120.19490 | 31889 ft | 470 kts | 206° |
| 2026-05-06 12:02 | 12.73202 | 120.16615 | 31877 ft | 477 kts | 206° |
| 2026-05-06 12:02 | 12.67157 | 120.13728 | 31882 ft | 481 kts | 206° |
| 2026-05-06 12:03 | 12.61056 | 120.10815 | 31883 ft | 480 kts | 206° |
| 2026-05-06 12:03 | 12.54945 | 120.07897 | 31888 ft | 484 kts | 206° |
| 2026-05-06 12:04 | 12.48781 | 120.04954 | 31887 ft | 487 kts | 206° |
| 2026-05-06 12:04 | 12.42535 | 120.01975 | 31890 ft | 487 kts | 206° |
| 2026-05-06 12:05 | 12.36296 | 119.99002 | 31892 ft | 488 kts | 206° |
| 2026-05-06 12:05 | 12.30022 | 119.96013 | 31892 ft | 487 kts | 206° |
| 2026-05-06 12:06 | 12.23833 | 119.93065 | 31893 ft | 488 kts | 206° |
| 2026-05-06 12:06 | 12.17636 | 119.90115 | 31892 ft | 488 kts | 206° |
| 2026-05-06 12:07 | 12.11380 | 119.87138 | 31889 ft | 488 kts | 206° |
| 2026-05-06 12:07 | 12.05205 | 119.84202 | 31888 ft | 489 kts | 205° |
| 2026-05-06 12:08 | 11.98912 | 119.81210 | 31888 ft | 491 kts | 205° |
| 2026-05-06 12:08 | 11.92705 | 119.78263 | 31882 ft | 490 kts | 205° |
| 2026-05-06 12:09 | 11.86498 | 119.75314 | 31873 ft | 489 kts | 205° |
| 2026-05-06 12:09 | 11.80308 | 119.72374 | 31868 ft | 489 kts | 206° |
| 2026-05-06 12:10 | 11.74115 | 119.69431 | 31867 ft | 489 kts | 206° |
| 2026-05-06 12:10 | 11.67885 | 119.66487 | 31867 ft | 490 kts | 205° |
| 2026-05-06 12:11 | 11.61623 | 119.63590 | 31867 ft | 491 kts | 205° |
| 2026-05-06 12:11 | 11.55333 | 119.60681 | 31867 ft | 491 kts | 205° |
| 2026-05-06 12:12 | 11.49113 | 119.57800 | 31867 ft | 490 kts | 205° |
| 2026-05-06 12:12 | 11.42888 | 119.54914 | 31869 ft | 490 kts | 205° |
| 2026-05-06 12:13 | 11.36644 | 119.52020 | 31873 ft | 490 kts | 205° |
| 2026-05-06 12:13 | 11.30399 | 119.49127 | 31878 ft | 490 kts | 205° |
| 2026-05-06 12:14 | 11.24148 | 119.46234 | 31881 ft | 491 kts | 205° |
| 2026-05-06 12:14 | 11.17815 | 119.43301 | 31879 ft | 491 kts | 205° |
| 2026-05-06 12:15 | 11.11501 | 119.40378 | 31665 ft | 490 kts | 205° |
| 2026-05-06 12:15 | 11.08378 | 119.38934 | 31186 ft | 484 kts | 205° |
| 2026-05-06 12:15 | 11.05320 | 119.37521 | 30463 ft | 480 kts | 205° |
| 2026-05-06 12:16 | 11.02243 | 119.36099 | 29525 ft | 480 kts | 205° |
| 2026-05-06 12:16 | 10.99130 | 119.34660 | 28423 ft | 483 kts | 205° |
| 2026-05-06 12:16 | 10.96039 | 119.33231 | 27541 ft | 480 kts | 205° |
| 2026-05-06 12:16 | 10.92961 | 119.31808 | 26941 ft | 471 kts | 204° |
| 2026-05-06 12:17 | 10.89955 | 119.30418 | 26382 ft | 463 kts | 204° |
| 2026-05-06 12:17 | 10.87018 | 119.29060 | 25887 ft | 454 kts | 204° |
| 2026-05-06 12:17 | 10.84143 | 119.27733 | 25301 ft | 448 kts | 204° |
| 2026-05-06 12:17 | 10.81305 | 119.26422 | 24601 ft | 439 kts | 204° |
| 2026-05-06 12:18 | 10.78538 | 119.25144 | 23463 ft | 434 kts | 204° |
| 2026-05-06 12:18 | 10.75795 | 119.23878 | 22204 ft | 430 kts | 204° |
| 2026-05-06 12:18 | 10.73093 | 119.22631 | 21046 ft | 424 kts | 204° |
| 2026-05-06 12:18 | 10.70396 | 119.21388 | 20178 ft | 424 kts | 204° |
| 2026-05-06 12:19 | 10.67710 | 119.20149 | 19673 ft | 417 kts | 203° |
| 2026-05-06 12:19 | 10.65071 | 119.18933 | 19158 ft | 412 kts | 203° |
| 2026-05-06 12:19 | 10.62386 | 119.17695 | 18631 ft | 407 kts | 203° |
| 2026-05-06 12:19 | 10.59745 | 119.16478 | 18237 ft | 424 kts | 203° |
| 2026-05-06 12:20 | 10.57016 | 119.15221 | 17723 ft | 421 kts | 203° |
| 2026-05-06 12:20 | 10.54315 | 119.13975 | 17177 ft | 418 kts | 203° |
| 2026-05-06 12:20 | 10.51583 | 119.12716 | 16595 ft | 415 kts | 203° |
| 2026-05-06 12:20 | 10.48941 | 119.11500 | 16007 ft | 413 kts | 203° |
| 2026-05-06 12:21 | 10.46314 | 119.10289 | 15418 ft | 411 kts | 203° |
| 2026-05-06 12:21 | 10.43743 | 119.09104 | 14825 ft | 410 kts | 203° |
| 2026-05-06 12:21 | 10.41142 | 119.07906 | 14205 ft | 409 kts | 203° |
| 2026-05-06 12:21 | 10.38537 | 119.06709 | 13586 ft | 407 kts | 203° |
| 2026-05-06 12:22 | 10.36014 | 119.05468 | 12988 ft | 405 kts | 207° |
| 2026-05-06 12:22 | 10.33547 | 119.04012 | 12385 ft | 403 kts | 212° |
| 2026-05-06 12:22 | 10.31241 | 119.02393 | 11798 ft | 400 kts | 215° |
| 2026-05-06 12:22 | 10.29035 | 119.00736 | 11411 ft | 390 kts | 216° |
| 2026-05-06 12:23 | 10.26881 | 118.99101 | 11128 ft | 377 kts | 216° |
| 2026-05-06 12:23 | 10.24819 | 118.97540 | 10920 ft | 364 kts | 216° |
| 2026-05-06 12:23 | 10.22816 | 118.96028 | 10708 ft | 351 kts | 216° |
| 2026-05-06 12:23 | 10.20858 | 118.94555 | 10509 ft | 339 kts | 216° |
| 2026-05-06 12:24 | 10.18992 | 118.93153 | 10333 ft | 328 kts | 216° |
| 2026-05-06 12:24 | 10.17184 | 118.91797 | 10174 ft | 316 kts | 216° |
| 2026-05-06 12:24 | 10.15438 | 118.90492 | 10031 ft | 305 kts | 214° |
| 2026-05-06 12:24 | 10.14226 | 118.89780 | 9987 ft | 304 kts | 199° |
| 2026-05-06 12:26 | 10.00076 | 118.93227 | 7431 ft | 285 kts | 161° |
| 2026-05-06 12:26 | 9.98843 | 118.93594 | 7043 ft | 286 kts | 161° |
| 2026-05-06 12:27 | 9.96272 | 118.94357 | 6546 ft | 282 kts | 161° |
| 2026-05-06 12:27 | 9.94351 | 118.94930 | 6198 ft | 280 kts | 161° |
| 2026-05-06 12:27 | 9.92467 | 118.95490 | 5840 ft | 278 kts | 161° |
| 2026-05-06 12:27 | 9.90594 | 118.96048 | 5477 ft | 277 kts | 161° |
| 2026-05-06 12:28 | 9.88720 | 118.96606 | 5104 ft | 276 kts | 161° |
| 2026-05-06 12:28 | 9.86847 | 118.97165 | 4740 ft | 275 kts | 161° |
| 2026-05-06 12:28 | 9.84982 | 118.97720 | 4522 ft | 268 kts | 161° |
| 2026-05-06 12:28 | 9.83187 | 118.98253 | 4362 ft | 259 kts | 161° |
| 2026-05-06 12:29 | 9.81443 | 118.98614 | 4202 ft | 253 kts | 172° |
| 2026-05-06 12:29 | 9.79665 | 118.98675 | 4045 ft | 246 kts | 179° |
| 2026-05-06 12:29 | 9.77929 | 118.98602 | 3889 ft | 238 kts | 180° |
| 2026-05-06 12:29 | 9.76245 | 118.98514 | 3695 ft | 234 kts | 180° |
| 2026-05-06 12:30 | 9.74603 | 118.98231 | 3400 ft | 236 kts | 206° |
| 2026-05-06 12:30 | 9.73460 | 118.97088 | 3199 ft | 231 kts | 246° |
| 2026-05-06 12:30 | 9.73189 | 118.95547 | 3096 ft | 219 kts | 275° |
| 2026-05-06 12:30 | 9.73306 | 118.94022 | 3027 ft | 216 kts | 276° |
| 2026-05-06 12:31 | 9.73426 | 118.92515 | 2893 ft | 214 kts | 276° |
| 2026-05-06 12:31 | 9.73524 | 118.91009 | 2829 ft | 206 kts | 275° |
| 2026-05-06 12:31 | 9.73601 | 118.89578 | 2563 ft | 203 kts | 274° |
| 2026-05-06 12:31 | 9.73669 | 118.88134 | 2238 ft | 199 kts | 274° |
| 2026-05-06 12:32 | 9.73728 | 118.86752 | 1945 ft | 189 kts | 274° |
| 2026-05-06 12:32 | 9.73780 | 118.85462 | 1705 ft | 177 kts | 274° |
| 2026-05-06 12:32 | 9.73831 | 118.84239 | 1458 ft | 168 kts | 274° |
| 2026-05-06 12:32 | 9.73880 | 118.83076 | 1240 ft | 163 kts | 274° |
| 2026-05-06 12:33 | 9.73928 | 118.81938 | 1035 ft | 163 kts | 274° |
| 2026-05-06 12:33 | 9.73976 | 118.80791 | 866 ft | 161 kts | 274° |
| 2026-05-06 12:33 | 9.74029 | 118.79650 | 865 ft | 162 kts | 274° |
| 2026-05-06 12:33 | 9.74154 | 118.78513 | 857 ft | 160 kts | 293° |
| 2026-05-06 12:34 | 9.74832 | 118.77608 | 864 ft | 156 kts | 321° |
| 2026-05-06 12:34 | 9.75675 | 118.76872 | 867 ft | 155 kts | 323° |
| 2026-05-06 12:34 | 9.76521 | 118.76154 | 868 ft | 155 kts | 323° |
| 2026-05-06 12:34 | 9.77352 | 118.75433 | 869 ft | 155 kts | 321° |
| 2026-05-06 12:35 | 9.77951 | 118.74535 | 851 ft | 160 kts | 287° |
| 2026-05-06 12:35 | 9.78134 | 118.73417 | 871 ft | 161 kts | 279° |
| 2026-05-06 12:35 | 9.78214 | 118.72275 | 865 ft | 162 kts | 266° |
| 2026-05-06 12:35 | 9.77858 | 118.71211 | 861 ft | 161 kts | 234° |
| 2026-05-06 12:36 | 9.77023 | 118.70540 | 845 ft | 149 kts | 198° |
| 2026-05-06 12:36 | 9.76028 | 118.70467 | 841 ft | 143 kts | 168° |
| 2026-05-06 12:36 | 9.75118 | 118.70807 | 756 ft | 136 kts | 133° |
| 2026-05-06 12:36 | 9.74582 | 118.71575 | 649 ft | 133 kts | 109° |
| 2026-05-06 12:37 | 9.74383 | 118.72533 | 512 ft | 132 kts | 96° |
| 2026-05-06 12:37 | 9.74307 | 118.73593 | 340 ft | 132 kts | 90° |
| 2026-05-06 12:37 | 9.74260 | 118.74620 | 146 ft | 131 kts | 91° |
| 2026-05-06 12:37 | 9.74224 | 118.75531 | 75 ft | 115 kts | 93° |
| 2026-05-06 12:38 | 9.74196 | 118.76165 | 74 ft | 65 kts | 92° |
| 2026-05-06 12:38 | 9.74182 | 118.76490 | 74 ft | 30 kts | 91° |
| 2026-05-06 12:38 | 9.74192 | 118.76606 | 74 ft | 9 kts | 86° |
| 2026-05-06 12:38 | 9.74177 | 118.76655 | 74 ft | 4 kts | 129° |
| 2026-05-06 12:39 | 9.74166 | 118.76674 | 74 ft | 1 kts | 76° |
| 2026-05-06 12:39 | 9.74173 | 118.76671 | 74 ft | 2 kts | 287° |
| 2026-05-06 12:39 | 9.74175 | 118.76635 | 74 ft | 6 kts | 272° |
| 2026-05-06 12:39 | 9.74178 | 118.76560 | 74 ft | 11 kts | 272° |
| 2026-05-06 12:40 | 9.74183 | 118.76444 | 74 ft | 16 kts | 272° |
| 2026-05-06 12:40 | 9.74189 | 118.76292 | 74 ft | 20 kts | 273° |
| 2026-05-06 12:40 | 9.74197 | 118.76118 | 74 ft | 23 kts | 273° |
| 2026-05-06 12:40 | 9.74207 | 118.75916 | 74 ft | 26 kts | 272° |
| 2026-05-06 12:41 | 9.74217 | 118.75690 | 74 ft | 28 kts | 273° |
| 2026-05-06 12:41 | 9.74227 | 118.75461 | 74 ft | 29 kts | 274° |
| 2026-05-06 12:41 | 9.74233 | 118.75283 | 74 ft | 9 kts | 275° |
| 2026-05-06 12:41 | 9.74278 | 118.75251 | 74 ft | 8 kts | 3° |
| 2026-05-06 12:42 | 9.74344 | 118.75255 | 74 ft | 10 kts | 3° |
| 2026-05-06 12:42 | 9.74397 | 118.75243 | 74 ft | 6 kts | 309° |
| 2026-05-06 12:42 | 9.74406 | 118.75203 | 74 ft | 7 kts | 273° |
| 2026-05-06 12:42 | 9.74409 | 118.75140 | 74 ft | 8 kts | 273° |
| 2026-05-06 12:43 | 9.74434 | 118.75113 | 74 ft | 6 kts | 4° |
| 2026-05-06 12:43 | 9.74480 | 118.75115 | 74 ft | 5 kts | 2° |
| 2026-05-06 12:43 | 9.74501 | 118.75117 | 74 ft | 2 kts | 3° |
| 2026-05-06 12:43 | 9.74507 | 118.75117 | 74 ft | 0 kts | 3° |